Black Star — 9HA2911 — position and weather

sailwx.info

Track history (hours):
 
Tides and Currents Weather Stations Pressure Air Temp Water Temp Dewpoint Dewpoint Depression Visibility Wind Speed Wind Dir Waves Ship Positions

Black Star

Last reported at 2017-Jan-17 14:31 UTC. Time now 2017-Jan-19 16:57 UTC.
Position N 49°47' W 003°29'.

Length 128 m; draft 7.7 m.

Type: Ship (hazmat cat B). MMSI: 256714000.

Date/timePositionNaut miles runAvg speedWind from/ knotsBaromVisibWave heightAir tempDewpointWater temp
2017-Jan-17 14:31N 49°47' W 003°29'1514.4
2017-Jan-17 13:28N 49°54' W 003°09'1313.2
2017-Jan-17 12:31N 49°60' W 002°52'3411.4
2017-Jan-17 09:31N 50°08' W 001°60'1212.3
2017-Jan-17 08:33N 50°12' W 001°42'5215.6
2017-Jan-17 05:13N 50°28' W 000°24'1015.7
2017-Jan-17 04:33N 50°31' W 000°09'1515.1
2017-Jan-17 03:33N 50°34' E 000°14'1414.0
2017-Jan-17 02:34N 50°38' E 000°35'1313.4
2017-Jan-17 01:34N 50°46' E 000°52'2813.9
2017-Jan-16 23:33N 51°03' E 001°26'1716.9
2017-Jan-16 22:33N 51°15' E 001°46'1514.5
2017-Jan-16 21:33N 51°24' E 002°04'1313.5
2017-Jan-16 20:34N 51°22' E 002°25'1312.8
2017-Jan-16 19:34N 51°22' E 002°46'1313.1
2017-Jan-16 18:34N 51°24' E 003°06'1413.9
2017-Jan-16 17:34N 51°25' E 003°28'1010.3
2017-Jan-16 16:33N 51°22' E 003°44'9 9.1
2017-Jan-16 15:33N 51°25' E 003°58'9 8.0
2017-Jan-16 14:27N 51°24' E 004°12'9 9.6
2017-Jan-16 13:33N 51°17' E 004°20'0 0.4
2017-Jan-16 12:33N 51°17' E 004°20'0 0.0
2017-Jan-15 15:07N 51°17' E 004°20'0 0.4
2017-Jan-15 14:33N 51°17' E 004°20'1 0.9
2017-Jan-15 13:33N 51°16' E 004°19'2 1.7
2017-Jan-15 12:33N 51°16' E 004°16'1 0.0
2017-Jan-13 11:04N 51°16' E 004°15'1 1.6
2017-Jan-13 10:33N 51°16' E 004°17'2 2.1
2017-Jan-13 09:33N 51°18' E 004°17'8 7.6
2017-Jan-13 08:31N 51°22' E 004°07'6 6.2
2017-Jan-13 07:31N 51°23' E 003°57'9 8.9
2017-Jan-13 06:33N 51°23' E 003°43'8 7.6
2017-Jan-13 05:33N 51°27' E 003°33'1111.2
2017-Jan-13 04:33N 51°36' E 003°23'1211.6
2017-Jan-13 03:33N 51°47' E 003°17'19 9.2
2017-Jan-13 01:32N 52°03' E 003°33'9 9.8
2017-Jan-13 00:34N 52°02' E 003°48'8 7.8
2017-Jan-12 23:33N 52°00' E 004°01'1413.4
2017-Jan-12 22:33N 51°54' E 004°20'1 0.1
2017-Jan-12 05:14N 51°54' E 004°22'0 0.0
2017-Jan-12 04:26N 51°54' E 004°22'0 0.0
2017-Jan-12 03:26N 51°54' E 004°22'0 0.0
2017-Jan-12 02:32N 51°54' E 004°22'0 0.0
2017-Jan-12 01:14N 51°54' E 004°22'0 0.0
2017-Jan-12 00:32N 51°54' E 004°22'0 0.0
2017-Jan-11 23:20N 51°54' E 004°22'0 0.0
2017-Jan-11 22:32N 51°54' E 004°22'0 0.0
2017-Jan-11 21:32N 51°54' E 004°22'0 0.0
2017-Jan-11 20:32N 51°54' E 004°22'0 0.0
2017-Jan-11 19:32N 51°54' E 004°22'0 0.0
2017-Jan-11 18:32N 51°54' E 004°22'0 0.0
2017-Jan-11 17:32N 51°54' E 004°22'0 0.0
2017-Jan-11 16:29N 51°54' E 004°22'0 0.0
2017-Jan-11 15:32N 51°54' E 004°22'0 0.0
2017-Jan-11 14:23N 51°54' E 004°22'5 5.5
2017-Jan-11 13:33N 51°55' E 004°15'1514.7
2017-Jan-11 12:33N 52°00' E 003°52'7 6.7
2017-Jan-11 11:33N 52°04' E 003°44'5 0.2
2017-Jan-10 14:19N 52°07' E 003°37'1012.8
2017-Jan-10 13:33N 52°04' E 003°52'9 8.8
2017-Jan-10 12:33N 51°59' E 004°04'5 5.0
2017-Jan-10 11:31N 51°56' E 004°11'0 0.0
2017-Jan-10 10:25N 51°56' E 004°11'0 0.0
2017-Jan-10 09:31N 51°56' E 004°11'0 0.0
2017-Jan-10 08:31N 51°56' E 004°11'0 0.0
2017-Jan-10 07:31N 51°56' E 004°11'0 0.0
2017-Jan-10 06:31N 51°56' E 004°11'0 0.0
2017-Jan-10 05:28N 51°56' E 004°11'0 0.0
2017-Jan-10 04:19N 51°56' E 004°11'0 0.0
2017-Jan-10 03:22N 51°56' E 004°11'0 0.0
2017-Jan-10 02:31N 51°56' E 004°11'0 0.0
2017-Jan-10 01:31N 51°56' E 004°11'0 0.0
2017-Jan-10 00:22N 51°56' E 004°11'0 0.0
2017-Jan-09 23:31N 51°56' E 004°11'0 0.0
2017-Jan-09 22:22N 51°56' E 004°11'0 0.0
2017-Jan-09 21:31N 51°56' E 004°11'0 0.0
2017-Jan-09 20:31N 51°56' E 004°11'0 0.0
2017-Jan-09 19:31N 51°56' E 004°11'0 0.0
2017-Jan-09 18:28N 51°56' E 004°11'0 0.0
2017-Jan-09 17:22N 51°56' E 004°11'0 0.0
2017-Jan-09 16:22N 51°56' E 004°11'0 0.0
2017-Jan-09 15:25N 51°56' E 004°11'0 0.0
2017-Jan-09 14:31N 51°56' E 004°11'0 0.0
2017-Jan-09 13:22N 51°56' E 004°11'0 0.0
2017-Jan-09 12:28N 51°56' E 004°11'0 0.0
2017-Jan-09 11:31N 51°56' E 004°11'0 0.0
2017-Jan-09 10:25N 51°56' E 004°11'0 0.0
2017-Jan-09 09:19N 51°56' E 004°11'0 0.0
2017-Jan-09 08:31N 51°56' E 004°11'0 0.0
2017-Jan-09 07:22N 51°56' E 004°11'0 0.0
2017-Jan-09 06:31N 51°56' E 004°11'0 0.0
2017-Jan-09 05:22N 51°56' E 004°11'0 0.0
2017-Jan-09 04:31N 51°56' E 004°11'0 0.0
2017-Jan-09 03:22N 51°56' E 004°11'0 0.0
2017-Jan-09 02:31N 51°56' E 004°11'0 0.0
2017-Jan-09 01:31N 51°56' E 004°11'0 0.0
2017-Jan-09 00:13N 51°56' E 004°11'0 0.0
2017-Jan-08 23:31N 51°56' E 004°11'0 0.0
2017-Jan-08 22:31N 51°56' E 004°11'4 4.0
2017-Jan-08 21:33N 51°59' E 004°06'1211.6
2017-Jan-08 20:33N 51°60' E 003°47'6310.1
2017-Jan-08 14:16N 52°12' E 002°06'912.2
2017-Jan-08 13:31N 52°09' E 001°51'7 7.5
2017-Jan-08 12:32N 52°04' E 001°43'1212.4
2017-Jan-08 11:33N 51°56' E 001°28'8 7.2
2017-Jan-08 10:25N 51°57' E 001°14'0 0.0
2017-Jan-08 09:31N 51°57' E 001°14'0 0.0
2017-Jan-08 08:31N 51°57' E 001°14'0 0.0
2017-Jan-08 07:25N 51°57' E 001°14'0 0.0
2017-Jan-08 06:19N 51°57' E 001°14'0 0.0
2017-Jan-08 05:31N 51°57' E 001°14'0 0.0
2017-Jan-08 04:28N 51°57' E 001°14'0 0.0
2017-Jan-08 03:28N 51°57' E 001°14'0 0.0
2017-Jan-08 02:31N 51°57' E 001°14'0 0.0
2017-Jan-08 01:28N 51°57' E 001°14'0 0.0
2017-Jan-08 00:31N 51°57' E 001°14'0 0.0
2017-Jan-07 23:31N 51°57' E 001°14'0 0.0
2017-Jan-07 22:22N 51°57' E 001°14'0 0.0
2017-Jan-07 21:16N 51°57' E 001°14'0 0.0
2017-Jan-07 20:31N 51°57' E 001°14'0 0.0
2017-Jan-07 19:31N 51°57' E 001°14'0 0.0
2017-Jan-07 18:31N 51°57' E 001°14'0 0.0
2017-Jan-07 17:28N 51°57' E 001°14'0 0.0
2017-Jan-07 16:31N 51°57' E 001°14'0 0.0
2017-Jan-07 15:28N 51°57' E 001°14'0 0.0
2017-Jan-07 14:31N 51°57' E 001°14'  
Track history (hours):
 
Tides and Currents Weather Stations Pressure Air Temp Water Temp Dewpoint Dewpoint Depression Visibility Wind Speed Wind Dir Waves Ship Positions

Black Star

Last reported at 2017-Jan-17 14:31 UTC. Time now 2017-Jan-19 16:57 UTC.
Position N 49°47' W 003°29'.

Length 128 m; draft 7.7 m.

Type: Ship (hazmat cat B). MMSI: 256714000.

Date/timePositionNaut miles runAvg speedWind from/ knotsBaromVisibWave heightAir tempDewpointWater temp
2017-Jan-17 14:31N 49°47' W 003°29'1514.4
2017-Jan-17 13:28N 49°54' W 003°09'1313.2
2017-Jan-17 12:31N 49°60' W 002°52'3411.4
2017-Jan-17 09:31N 50°08' W 001°60'1212.3
2017-Jan-17 08:33N 50°12' W 001°42'5215.6
2017-Jan-17 05:13N 50°28' W 000°24'1015.7
2017-Jan-17 04:33N 50°31' W 000°09'1515.1
2017-Jan-17 03:33N 50°34' E 000°14'1414.0
2017-Jan-17 02:34N 50°38' E 000°35'1313.4
2017-Jan-17 01:34N 50°46' E 000°52'2813.9
2017-Jan-16 23:33N 51°03' E 001°26'1716.9
2017-Jan-16 22:33N 51°15' E 001°46'1514.5
2017-Jan-16 21:33N 51°24' E 002°04'1313.5
2017-Jan-16 20:34N 51°22' E 002°25'1312.8
2017-Jan-16 19:34N 51°22' E 002°46'1313.1
2017-Jan-16 18:34N 51°24' E 003°06'1413.9
2017-Jan-16 17:34N 51°25' E 003°28'1010.3
2017-Jan-16 16:33N 51°22' E 003°44'9 9.1
2017-Jan-16 15:33N 51°25' E 003°58'9 8.0
2017-Jan-16 14:27N 51°24' E 004°12'9 9.6
2017-Jan-16 13:33N 51°17' E 004°20'0 0.4
2017-Jan-16 12:33N 51°17' E 004°20'0 0.0
2017-Jan-15 15:07N 51°17' E 004°20'0 0.4
2017-Jan-15 14:33N 51°17' E 004°20'1 0.9
2017-Jan-15 13:33N 51°16' E 004°19'2 1.7
2017-Jan-15 12:33N 51°16' E 004°16'1 0.0
2017-Jan-13 11:04N 51°16' E 004°15'1 1.6
2017-Jan-13 10:33N 51°16' E 004°17'2 2.1
2017-Jan-13 09:33N 51°18' E 004°17'8 7.6
2017-Jan-13 08:31N 51°22' E 004°07'6 6.2
2017-Jan-13 07:31N 51°23' E 003°57'9 8.9
2017-Jan-13 06:33N 51°23' E 003°43'8 7.6
2017-Jan-13 05:33N 51°27' E 003°33'1111.2
2017-Jan-13 04:33N 51°36' E 003°23'1211.6
2017-Jan-13 03:33N 51°47' E 003°17'19 9.2
2017-Jan-13 01:32N 52°03' E 003°33'9 9.8
2017-Jan-13 00:34N 52°02' E 003°48'8 7.8
2017-Jan-12 23:33N 52°00' E 004°01'1413.4
2017-Jan-12 22:33N 51°54' E 004°20'1 0.1
2017-Jan-12 05:14N 51°54' E 004°22'0 0.0
2017-Jan-12 04:26N 51°54' E 004°22'0 0.0
2017-Jan-12 03:26N 51°54' E 004°22'0 0.0
2017-Jan-12 02:32N 51°54' E 004°22'0 0.0
2017-Jan-12 01:14N 51°54' E 004°22'0 0.0
2017-Jan-12 00:32N 51°54' E 004°22'0 0.0
2017-Jan-11 23:20N 51°54' E 004°22'0 0.0
2017-Jan-11 22:32N 51°54' E 004°22'0 0.0
2017-Jan-11 21:32N 51°54' E 004°22'0 0.0
2017-Jan-11 20:32N 51°54' E 004°22'0 0.0
2017-Jan-11 19:32N 51°54' E 004°22'0 0.0
2017-Jan-11 18:32N 51°54' E 004°22'0 0.0
2017-Jan-11 17:32N 51°54' E 004°22'0 0.0
2017-Jan-11 16:29N 51°54' E 004°22'0 0.0
2017-Jan-11 15:32N 51°54' E 004°22'0 0.0
2017-Jan-11 14:23N 51°54' E 004°22'5 5.5
2017-Jan-11 13:33N 51°55' E 004°15'1514.7
2017-Jan-11 12:33N 52°00' E 003°52'7 6.7
2017-Jan-11 11:33N 52°04' E 003°44'5 0.2
2017-Jan-10 14:19N 52°07' E 003°37'1012.8
2017-Jan-10 13:33N 52°04' E 003°52'9 8.8
2017-Jan-10 12:33N 51°59' E 004°04'5 5.0
2017-Jan-10 11:31N 51°56' E 004°11'0 0.0
2017-Jan-10 10:25N 51°56' E 004°11'0 0.0
2017-Jan-10 09:31N 51°56' E 004°11'0 0.0
2017-Jan-10 08:31N 51°56' E 004°11'0 0.0
2017-Jan-10 07:31N 51°56' E 004°11'0 0.0
2017-Jan-10 06:31N 51°56' E 004°11'0 0.0
2017-Jan-10 05:28N 51°56' E 004°11'0 0.0
2017-Jan-10 04:19N 51°56' E 004°11'0 0.0
2017-Jan-10 03:22N 51°56' E 004°11'0 0.0
2017-Jan-10 02:31N 51°56' E 004°11'0 0.0
2017-Jan-10 01:31N 51°56' E 004°11'0 0.0
2017-Jan-10 00:22N 51°56' E 004°11'0 0.0
2017-Jan-09 23:31N 51°56' E 004°11'0 0.0
2017-Jan-09 22:22N 51°56' E 004°11'0 0.0
2017-Jan-09 21:31N 51°56' E 004°11'0 0.0
2017-Jan-09 20:31N 51°56' E 004°11'0 0.0
2017-Jan-09 19:31N 51°56' E 004°11'0 0.0
2017-Jan-09 18:28N 51°56' E 004°11'0 0.0
2017-Jan-09 17:22N 51°56' E 004°11'0 0.0
2017-Jan-09 16:22N 51°56' E 004°11'0 0.0
2017-Jan-09 15:25N 51°56' E 004°11'0 0.0
2017-Jan-09 14:31N 51°56' E 004°11'0 0.0
2017-Jan-09 13:22N 51°56' E 004°11'0 0.0
2017-Jan-09 12:28N 51°56' E 004°11'0 0.0
2017-Jan-09 11:31N 51°56' E 004°11'0 0.0
2017-Jan-09 10:25N 51°56' E 004°11'0 0.0
2017-Jan-09 09:19N 51°56' E 004°11'0 0.0
2017-Jan-09 08:31N 51°56' E 004°11'0 0.0
2017-Jan-09 07:22N 51°56' E 004°11'0 0.0
2017-Jan-09 06:31N 51°56' E 004°11'0 0.0
2017-Jan-09 05:22N 51°56' E 004°11'0 0.0
2017-Jan-09 04:31N 51°56' E 004°11'0 0.0
2017-Jan-09 03:22N 51°56' E 004°11'0 0.0
2017-Jan-09 02:31N 51°56' E 004°11'0 0.0
2017-Jan-09 01:31N 51°56' E 004°11'0 0.0
2017-Jan-09 00:13N 51°56' E 004°11'0 0.0
2017-Jan-08 23:31N 51°56' E 004°11'0 0.0
2017-Jan-08 22:31N 51°56' E 004°11'4 4.0
2017-Jan-08 21:33N 51°59' E 004°06'1211.6
2017-Jan-08 20:33N 51°60' E 003°47'6310.1
2017-Jan-08 14:16N 52°12' E 002°06'912.2
2017-Jan-08 13:31N 52°09' E 001°51'7 7.5
2017-Jan-08 12:32N 52°04' E 001°43'1212.4
2017-Jan-08 11:33N 51°56' E 001°28'8 7.2
2017-Jan-08 10:25N 51°57' E 001°14'0 0.0
2017-Jan-08 09:31N 51°57' E 001°14'0 0.0
2017-Jan-08 08:31N 51°57' E 001°14'0 0.0
2017-Jan-08 07:25N 51°57' E 001°14'0 0.0
2017-Jan-08 06:19N 51°57' E 001°14'0 0.0
2017-Jan-08 05:31N 51°57' E 001°14'0 0.0
2017-Jan-08 04:28N 51°57' E 001°14'0 0.0
2017-Jan-08 03:28N 51°57' E 001°14'0 0.0
2017-Jan-08 02:31N 51°57' E 001°14'0 0.0
2017-Jan-08 01:28N 51°57' E 001°14'0 0.0
2017-Jan-08 00:31N 51°57' E 001°14'0 0.0
2017-Jan-07 23:31N 51°57' E 001°14'0 0.0
2017-Jan-07 22:22N 51°57' E 001°14'0 0.0
2017-Jan-07 21:16N 51°57' E 001°14'0 0.0
2017-Jan-07 20:31N 51°57' E 001°14'0 0.0
2017-Jan-07 19:31N 51°57' E 001°14'0 0.0
2017-Jan-07 18:31N 51°57' E 001°14'0 0.0
2017-Jan-07 17:28N 51°57' E 001°14'0 0.0
2017-Jan-07 16:31N 51°57' E 001°14'0 0.0
2017-Jan-07 15:28N 51°57' E 001°14'0 0.0
2017-Jan-07 14:31N 51°57' E 001°14'  

Dump ship's entire track history